Time;durP1;ratioP1;P1;durP2;ratioP2;P2;SDS_P1;SDS_P2;PMS_P1;PMS_P2;Temp;Humidity;BMP_temperature;BMP_pressure;BME280_temperature;BME280_humidity;BME280_pressure;Samples;Min_cycle;Max_cycle;Signal;HPM_P1;HPM_P2
2023/07/01 00:00:41;;;;;;;4.10;3.00;;;;;;;19.78;88.34;98688.09;5056535;28;20205;-73
2023/07/01 00:03:07;;;;;;;4.00;3.00;;;;;;;19.76;87.84;98692.69;5060499;28;20725;-73
2023/07/01 00:05:34;;;;;;;5.00;3.00;;;;;;;19.71;89.47;98682.03;5060898;28;20197;-73
2023/07/01 00:08:01;;;;;;;4.67;3.10;;;;;;;19.67;89.72;98686.78;5067386;28;20228;-73
2023/07/01 00:10:30;;;;;;;3.27;2.87;;;;;;;19.61;89.44;98682.28;5066350;28;20237;-73
2023/07/01 00:12:56;;;;;;;4.87;2.90;;;;;;;19.58;89.39;98678.25;5068685;28;20209;-73
2023/07/01 00:15:23;;;;;;;2.97;2.60;;;;;;;19.53;89.87;98696.13;5060835;28;20228;-73
2023/07/01 00:17:50;;;;;;;4.10;3.03;;;;;;;19.48;89.76;98688.06;5069749;28;20210;-73
2023/07/01 00:20:17;;;;;;;3.80;3.07;;;;;;;19.54;89.11;98687.34;5069622;28;20556;-73
2023/07/01 00:22:44;;;;;;;5.53;3.20;;;;;;;19.56;89.25;98685.41;5067053;28;20233;-73
2023/07/01 00:25:11;;;;;;;4.50;3.10;;;;;;;19.64;89.55;98680.13;5063948;28;20207;-73
2023/07/01 00:27:39;;;;;;;4.07;2.90;;;;;;;19.66;89.21;98680.81;5049185;28;20226;-73
2023/07/01 00:30:07;;;;;;;3.70;3.00;;;;;;;19.67;88.92;98679.81;5054041;28;20650;-73
2023/07/01 00:32:34;;;;;;;3.70;2.83;;;;;;;19.66;89.51;98679.97;5052531;28;20230;-73
2023/07/01 00:35:01;;;;;;;3.33;2.70;;;;;;;19.66;90.64;98675.59;5061368;28;20207;-73
2023/07/01 00:37:30;;;;;;;3.80;2.73;;;;;;;19.66;88.59;98679.97;5049379;28;20246;-73
2023/07/01 00:39:57;;;;;;;3.90;2.80;;;;;;;19.65;88.39;98676.56;5049456;28;20193;-73
2023/07/01 00:42:24;;;;;;;5.93;3.00;;;;;;;19.64;89.08;98674.16;5061176;28;20230;-73
2023/07/01 00:44:52;;;;;;;3.87;2.90;;;;;;;19.60;90.43;98670.28;5065298;28;20210;-73
2023/07/01 00:47:19;;;;;;;3.13;2.50;;;;;;;19.58;91.70;98664.50;5069149;28;20252;-73
2023/07/01 00:49:47;;;;;;;4.73;3.10;;;;;;;19.53;92.31;98670.19;5067350;28;20703;-73
2023/07/01 00:52:14;;;;;;;3.13;2.83;;;;;;;19.52;92.72;98662.59;5063025;28;20228;-73
2023/07/01 00:54:41;;;;;;;4.17;3.00;;;;;;;19.50;91.85;98665.38;5051235;28;20210;-73
2023/07/01 00:57:08;;;;;;;4.03;2.80;;;;;;;19.51;91.94;98661.78;5049157;28;20226;-73
2023/07/01 00:59:35;;;;;;;5.97;3.03;;;;;;;19.50;90.27;98655.00;5049697;28;20213;-73
2023/07/01 01:02:07;;;;;;;2.70;2.23;;;;;;;19.49;91.72;98657.75;5061978;28;20636;-73
2023/07/01 01:04:44;;;;;;;4.43;2.90;;;;;;;19.47;92.62;98660.53;5054071;28;20209;-73
2023/07/01 01:07:18;;;;;;;3.37;2.63;;;;;;;19.44;93.35;98659.09;5048198;28;20232;-73
2023/07/01 01:09:50;;;;;;;5.73;2.83;;;;;;;19.47;95.14;98654.56;5061032;28;20237;-74
2023/07/01 01:12:18;;;;;;;3.07;2.53;;;;;;;19.44;93.66;98645.34;5067951;28;20693;-73
2023/07/01 01:14:46;;;;;;;3.97;2.53;;;;;;;19.44;91.23;98645.34;5049269;28;20198;-73
2023/07/01 01:17:16;;;;;;;3.10;2.33;;;;;;;19.44;90.15;98645.34;5048224;28;20224;-73
2023/07/01 01:19:47;;;;;;;4.13;2.80;;;;;;;19.42;90.86;98647.31;5068246;28;20677;-73
2023/07/01 01:22:18;;;;;;;3.13;2.30;;;;;;;19.39;92.16;98647.66;5060920;28;20226;-73
2023/07/01 01:24:50;;;;;;;3.27;2.50;;;;;;;19.36;94.38;98643.63;5049189;28;20408;-73
2023/07/01 01:27:29;;;;;;;3.27;2.50;;;;;;;19.35;95.90;98643.81;5056657;28;20278;-73
2023/07/01 01:29:57;;;;;;;3.57;2.67;;;;;;;19.29;97.05;98641.94;5071695;28;20658;-73
2023/07/01 01:32:24;;;;;;;3.43;2.37;;;;;;;19.23;98.30;98639.06;5066931;28;20597;-73
2023/07/01 01:34:51;;;;;;;5.93;2.60;;;;;;;19.24;97.97;98634.69;5052642;28;20207;-73
2023/07/01 01:37:25;;;;;;;3.50;2.70;;;;;;;19.23;94.87;98633.88;5064172;28;20251;-73
2023/07/01 01:39:57;;;;;;;3.80;2.73;;;;;;;19.18;96.66;98641.38;5072923;28;20204;-73
2023/07/01 01:42:28;;;;;;;3.60;2.57;;;;;;;18.98;98.50;98640.28;5062667;28;20229;-73
2023/07/01 01:44:58;;;;;;;3.37;2.53;;;;;;;18.95;97.39;98635.44;5055086;28;20584;-73
2023/07/01 01:47:30;;;;;;;2.97;2.50;;;;;;;18.97;97.63;98646.44;5071869;28;20240;-73
2023/07/01 01:50:02;;;;;;;4.27;2.90;;;;;;;18.84;96.76;98638.47;5070932;28;20235;-73
2023/07/01 01:52:30;;;;;;;3.67;2.90;;;;;;;18.86;96.89;98639.09;5060702;28;20303;-73
2023/07/01 01:54:59;;;;;;;4.53;2.67;;;;;;;18.92;96.50;98635.81;5061710;28;20203;-73
2023/07/01 01:57:26;;;;;;;4.80;2.60;;;;;;;18.93;96.17;98637.41;5072345;28;20615;-73
2023/07/01 01:59:53;;;;;;;3.70;2.77;;;;;;;18.86;96.65;98639.09;5072336;28;20723;-73
2023/07/01 02:02:21;;;;;;;3.87;2.90;;;;;;;18.77;96.93;98633.19;5062617;28;20241;-73
2023/07/01 02:04:49;;;;;;;4.37;2.97;;;;;;;18.73;97.44;98627.56;5065141;28;20687;-73
2023/07/01 02:07:16;;;;;;;4.73;3.07;;;;;;;18.69;97.42;98634.00;5062082;28;20219;-73
2023/07/01 02:09:43;;;;;;;3.67;2.80;;;;;;;18.68;97.72;98637.59;5051651;28;20254;-73
2023/07/01 02:12:10;;;;;;;4.47;3.00;;;;;;;18.64;97.84;98632.91;5057605;28;20218;-73
2023/07/01 02:14:36;;;;;;;5.47;2.80;;;;;;;18.67;98.10;98633.38;5071265;28;20580;-73
2023/07/01 02:17:03;;;;;;;3.87;2.77;;;;;;;18.65;98.43;98635.34;5071782;28;20234;-73
2023/07/01 02:19:32;;;;;;;4.70;3.40;;;;;;;18.63;99.55;98629.53;5070501;28;20202;-73
2023/07/01 02:21:58;;;;;;;3.80;2.67;;;;;;;18.59;99.60;98636.03;5057602;28;20228;-73
2023/07/01 02:24:25;;;;;;;3.57;2.93;;;;;;;18.61;100.00;98628.88;5071983;28;20204;-73
2023/07/01 02:26:52;;;;;;;4.13;2.90;;;;;;;18.63;100.00;98632.13;5071849;28;20220;-73
2023/07/01 02:29:20;;;;;;;7.80;3.07;;;;;;;18.63;100.00;98633.91;5070050;28;20202;-73
2023/07/01 02:31:47;;;;;;;5.00;2.80;;;;;;;18.62;100.00;98635.69;5065765;28;20242;-73
2023/07/01 02:34:14;;;;;;;4.93;3.20;;;;;;;18.64;100.00;98632.91;5071689;28;20250;-73
2023/07/01 02:36:43;;;;;;;4.60;2.80;;;;;;;18.61;100.00;98631.47;5071735;28;20714;-73
2023/07/01 02:39:10;;;;;;;4.17;3.00;;;;;;;18.61;100.00;98634.06;5056817;28;20195;-73
2023/07/01 02:41:37;;;;;;;5.67;3.10;;;;;;;18.63;100.00;98641.66;5054214;28;20219;-73
2023/07/01 02:44:04;;;;;;;4.87;3.03;;;;;;;18.66;100.00;98636.94;5071701;28;20191;-73
2023/07/01 02:46:31;;;;;;;5.10;3.10;;;;;;;18.65;100.00;98640.53;5070281;28;20618;-73
2023/07/01 02:48:58;;;;;;;5.87;2.90;;;;;;;18.66;100.00;98634.34;5055457;28;20204;-73
2023/07/01 02:51:24;;;;;;;4.40;3.20;;;;;;;18.72;100.00;98630.28;5070301;28;20231;-73
2023/07/01 02:53:53;;;;;;;4.27;3.03;;;;;;;18.68;100.00;98635.00;5071526;28;20583;-73
2023/07/01 02:56:19;;;;;;;4.27;2.97;;;;;;;18.66;100.00;98636.94;5069382;28;20223;-73
2023/07/01 02:58:46;;;;;;;4.43;3.23;;;;;;;18.62;100.00;98635.69;5067834;28;20221;-73
2023/07/01 03:01:13;;;;;;;3.63;2.90;;;;;;;18.61;100.00;98631.47;5070823;28;20249;-73
2023/07/01 03:03:40;;;;;;;4.80;3.03;;;;;;;18.62;100.00;98633.09;5070969;28;20248;-73
2023/07/01 03:06:09;;;;;;;4.83;2.93;;;;;;;18.62;100.00;98630.53;5060036;28;20704;-73
2023/07/01 03:08:36;;;;;;;5.93;2.70;;;;;;;18.68;100.00;98629.81;5064595;28;20201;-73
2023/07/01 03:11:04;;;;;;;4.10;3.10;;;;;;;18.75;100.00;98630.75;5070853;28;20242;-73
2023/07/01 03:13:31;;;;;;;3.40;3.00;;;;;;;18.82;100.00;98630.06;5069503;28;20226;-73
2023/07/01 03:15:58;;;;;;;3.50;2.70;;;;;;;18.74;100.00;98634.31;5054807;28;20240;-73
2023/07/01 03:18:25;;;;;;;4.73;3.03;;;;;;;18.70;100.00;98630.47;5069799;28;20215;-73
2023/07/01 03:20:52;;;;;;;4.80;3.27;;;;;;;18.67;100.00;98630.78;5071040;28;20489;-73
2023/07/01 03:23:19;;;;;;;3.37;2.90;;;;;;;18.68;100.00;98629.03;5067645;28;20224;-73
2023/07/01 03:25:46;;;;;;;3.90;3.07;;;;;;;18.73;100.00;98622.38;5055614;28;20243;-73
2023/07/01 03:28:14;;;;;;;4.50;3.20;;;;;;;18.83;100.00;98629.09;5070553;28;20217;-73
2023/07/01 03:30:41;;;;;;;5.40;3.20;;;;;;;18.92;100.00;98625.44;5070424;28;20248;-73
2023/07/01 03:33:08;;;;;;;3.10;2.57;;;;;;;18.90;100.00;98624.81;5061320;28;20206;-73
2023/07/01 03:35:34;;;;;;;4.00;3.00;;;;;;;18.86;100.00;98620.97;5059406;28;20222;-73
2023/07/01 03:38:01;;;;;;;4.27;3.30;;;;;;;18.98;100.00;98619.56;5070329;28;20197;-73
2023/07/01 03:40:28;;;;;;;3.30;2.80;;;;;;;19.12;100.00;98626.53;5070303;28;20205;-73
2023/07/01 03:42:55;;;;;;;4.37;3.00;;;;;;;19.09;100.00;98626.91;5055500;28;20211;-73
2023/07/01 03:45:24;;;;;;;4.53;3.23;;;;;;;19.06;100.00;98627.25;5067240;28;20208;-73
2023/07/01 03:47:50;;;;;;;3.60;2.93;;;;;;;19.15;100.00;98621.00;5070382;28;20204;-73
2023/07/01 03:50:17;;;;;;;7.53;3.10;;;;;;;19.26;100.00;98612.00;5067813;28;20224;-73
2023/07/01 03:52:44;;;;;;;3.33;2.73;;;;;;;19.39;100.00;98621.75;5066209;28;20225;-73
2023/07/01 03:55:12;;;;;;;4.87;3.53;;;;;;;19.49;100.00;98622.28;5069939;28;20596;-73
2023/07/01 03:57:39;;;;;;;4.70;2.80;;;;;;;19.50;100.00;98623.88;5069830;28;20218;-73
2023/07/01 04:00:08;;;;;;;4.33;3.17;;;;;;;19.58;100.00;98616.03;5063496;28;20206;-73
2023/07/01 04:02:37;;;;;;;7.23;4.30;;;;;;;19.71;100.00;98630.16;5058306;28;20222;-74
2023/07/01 04:05:10;;;;;;;6.57;4.37;;;;;;;19.74;100.00;98640.19;5070200;28;20352;-73
2023/07/01 04:07:37;;;;;;;5.40;3.90;;;;;;;19.80;100.00;98639.44;5070160;28;20315;-73
2023/07/01 04:10:05;;;;;;;5.10;3.87;;;;;;;19.79;100.00;98640.44;5056151;28;20228;-73
2023/07/01 04:12:32;;;;;;;6.97;4.30;;;;;;;19.81;100.00;98647.06;5065105;28;20216;-73
2023/07/01 04:14:59;;;;;;;5.03;3.87;;;;;;;19.89;100.00;98646.13;5070044;28;20206;-73
2023/07/01 04:17:27;;;;;;;4.97;3.87;;;;;;;19.97;100.00;98651.22;5068494;28;20222;-73
2023/07/01 04:19:55;;;;;;;5.33;3.87;;;;;;;19.97;100.00;98651.22;5057598;28;20206;-74
2023/07/01 04:22:23;;;;;;;5.30;3.97;;;;;;;20.05;100.00;98656.31;5069710;28;20314;-73
2023/07/01 04:24:50;;;;;;;4.73;3.53;;;;;;;20.18;100.00;98660.06;5069886;28;20255;-74
2023/07/01 04:27:17;;;;;;;4.73;3.47;;;;;;;20.31;100.00;98657.59;5069503;28;20394;-73
2023/07/01 04:29:44;;;;;;;5.43;4.30;;;;;;;20.31;100.00;98653.22;5062150;28;20659;-73
2023/07/01 04:32:11;;;;;;;5.30;3.70;;;;;;;20.41;100.00;98655.50;5069373;28;20238;-74
2023/07/01 04:34:38;;;;;;;4.20;3.47;;;;;;;20.52;100.00;98655.03;5069510;28;20209;-73
2023/07/01 04:37:06;;;;;;;5.30;3.53;;;;;;;20.63;100.00;98655.56;5068138;28;20228;-73
2023/07/01 04:39:33;;;;;;;5.77;3.87;;;;;;;20.72;100.00;98652.63;5065468;28;20607;-73
2023/07/01 04:42:00;;;;;;;5.50;3.47;;;;;;;20.84;100.00;98646.94;5069981;28;20603;-73
2023/07/01 04:44:27;;;;;;;5.00;3.67;;;;;;;20.98;100.00;98654.66;5066867;28;20213;-73
2023/07/01 04:46:53;;;;;;;4.70;3.60;;;;;;;21.11;100.00;98655.72;5065413;28;20447;-73
2023/07/01 04:49:20;;;;;;;4.40;3.43;;;;;;;21.28;100.00;98653.66;5049638;28;20209;-73
2023/07/01 04:51:47;;;;;;;5.20;3.70;;;;;;;21.47;100.00;98648.59;5049194;28;20238;-73
2023/07/01 04:54:15;;;;;;;4.67;3.57;;;;;;;21.67;100.00;98658.28;5053514;28;20215;-73
2023/07/01 04:56:42;;;;;;;5.83;3.80;;;;;;;21.84;100.00;98659.56;5059986;28;20219;-74
2023/07/01 04:59:09;;;;;;;9.80;4.20;;;;;;;22.03;100.00;98665.88;5049277;28;20206;-74
2023/07/01 05:01:36;;;;;;;4.30;3.90;;;;;;;22.20;100.00;98671.56;5050953;28;20217;-74
2023/07/01 05:04:03;;;;;;;4.72;3.97;;;;;;;22.40;100.00;98668.19;5063356;28;20203;-74
2023/07/01 05:06:31;;;;;;;5.32;4.13;;;;;;;22.63;100.00;98673.88;5058347;28;20703;-74
2023/07/01 05:08:58;;;;;;;5.53;4.30;;;;;;;22.80;100.00;98675.06;5053496;28;20238;-73
2023/07/01 05:11:27;;;;;;;5.10;4.47;;;;;;;22.96;100.00;98678.34;5053209;28;20357;-74
2023/07/01 05:13:54;;;;;;;5.28;4.57;;;;;;;23.11;99.89;98668.50;5068482;28;20260;-74
2023/07/01 05:16:21;;;;;;;7.07;4.22;;;;;;;23.33;100.00;98670.88;5052909;28;20583;-74
2023/07/01 05:18:48;;;;;;;6.65;4.47;;;;;;;23.53;99.93;98673.44;5053080;28;20204;-73
2023/07/01 05:21:15;;;;;;;4.80;3.83;;;;;;;23.67;100.00;98670.59;5055695;28;20214;-74
2023/07/01 05:23:42;;;;;;;4.45;3.78;;;;;;;23.85;100.00;98671.75;5065666;28;20250;-74
2023/07/01 05:26:09;;;;;;;5.20;4.10;;;;;;;23.98;97.73;98671.72;5053021;28;20605;-74
2023/07/01 05:28:37;;;;;;;4.95;4.00;;;;;;;24.12;96.82;98678.50;5052970;28;20789;-73
2023/07/01 05:31:04;;;;;;;5.10;3.85;;;;;;;24.32;96.83;98683.63;5058479;28;20700;-74
2023/07/01 05:33:30;;;;;;;4.88;3.90;;;;;;;24.48;98.17;98682.34;5060008;28;20222;-73
2023/07/01 05:35:57;;;;;;;6.43;4.82;;;;;;;24.71;100.00;98683.59;5052903;28;20230;-73
2023/07/01 05:38:24;;;;;;;4.68;4.05;;;;;;;24.83;97.03;98689.75;5054545;28;20202;-74
2023/07/01 05:40:51;;;;;;;3.70;3.30;;;;;;;24.98;91.12;98682.38;5068444;28;20637;-73
2023/07/01 05:43:18;;;;;;;3.70;3.13;;;;;;;25.16;88.02;98683.47;5072317;28;20207;-74
2023/07/01 05:45:46;;;;;;;3.75;3.35;;;;;;;25.35;89.52;98676.47;5063107;28;20260;-73
2023/07/01 05:48:13;;;;;;;5.60;4.07;;;;;;;25.48;92.52;98676.31;5065377;28;20692;-74
2023/07/01 05:50:40;;;;;;;3.72;3.22;;;;;;;25.61;89.28;98675.38;5071760;28;20219;-73
2023/07/01 05:53:09;;;;;;;4.70;3.60;;;;;;;25.71;87.59;98673.03;5072289;28;20603;-80
2023/07/01 05:55:36;;;;;;;4.70;3.60;;;;;;;25.83;87.71;98671.34;5069189;28;20294;-76
2023/07/01 05:58:03;;;;;;;5.30;3.30;;;;;;;25.95;87.24;98672.19;5066496;28;20204;-76
2023/07/01 06:00:30;;;;;;;4.22;3.33;;;;;;;26.09;84.16;98674.63;5068193;28;20265;-72
2023/07/01 06:02:59;;;;;;;4.82;3.90;;;;;;;26.15;84.42;98686.84;5070089;28;20389;-72
2023/07/01 06:05:25;;;;;;;4.25;3.85;;;;;;;26.32;89.96;98671.31;5070883;28;20210;-73
2023/07/01 06:07:52;;;;;;;4.45;3.88;;;;;;;26.45;90.41;98670.34;5067155;28;20194;-74
2023/07/01 06:10:19;;;;;;;4.85;4.00;;;;;;;26.53;85.02;98667.41;5065133;28;20210;-73
2023/07/01 06:12:46;;;;;;;5.40;4.20;;;;;;;26.67;86.36;98668.78;5054809;28;20682;-73
2023/07/01 06:15:13;;;;;;;5.72;4.30;;;;;;;26.82;88.19;98677.06;5052172;28;20678;-75
2023/07/01 06:17:40;;;;;;;5.90;4.30;;;;;;;26.95;88.16;98680.47;5068577;28;20714;-75
2023/07/01 06:20:10;;;;;;;5.60;4.00;;;;;;;27.06;83.60;98674.44;5071770;28;20252;-78
2023/07/01 06:22:37;;;;;;;7.63;4.65;;;;;;;27.22;93.19;98671.16;5071251;28;20231;-80
2023/07/01 06:25:04;;;;;;;6.68;5.63;;;;;;;27.26;83.21;98672.31;5065856;28;20203;-79
2023/07/01 06:27:31;;;;;;;6.05;5.03;;;;;;;27.45;89.29;98664.28;5070664;28;20615;-74
2023/07/01 06:29:58;;;;;;;5.75;4.65;;;;;;;27.61;85.64;98668.84;5071292;28;20201;-74
2023/07/01 06:32:25;;;;;;;5.78;4.60;;;;;;;27.74;83.50;98665.94;5071246;28;20230;-78
2023/07/01 06:34:51;;;;;;;4.63;4.10;;;;;;;27.91;77.21;98673.13;5065801;28;20199;-77
2023/07/01 06:37:20;;;;;;;4.53;3.60;;;;;;;27.97;80.29;98666.94;5071031;28;20215;-82
2023/07/01 06:39:47;;;;;;;4.95;3.70;;;;;;;28.08;81.97;98667.94;5071408;28;20211;-76
2023/07/01 06:42:13;;;;;;;5.85;3.78;;;;;;;28.14;74.79;98673.03;5071722;28;20222;-74
2023/07/01 06:44:40;;;;;;;4.45;4.00;;;;;;;28.27;79.64;98677.19;5067579;28;20210;-82
2023/07/01 06:47:08;;;;;;;5.40;4.43;;;;;;;28.38;80.87;98680.81;5071275;28;20234;-75
2023/07/01 06:49:34;;;;;;;4.28;3.83;;;;;;;28.54;75.57;98674.81;5070667;28;20678;-76
2023/07/01 06:52:02;;;;;;;4.55;3.72;;;;;;;28.69;71.03;98673.47;5067950;28;20234;-74
2023/07/01 06:54:30;;;;;;;6.68;3.60;;;;;;;28.75;70.06;98675.94;5070077;28;20213;-74
2023/07/01 06:56:57;;;;;;;5.38;3.50;;;;;;;28.81;70.08;98684.72;5070641;28;20225;-73
2023/07/01 06:59:24;;;;;;;4.57;3.60;;;;;;;28.95;75.29;98686.00;5070377;28;20207;-74
2023/07/01 07:01:51;;;;;;;4.00;3.60;;;;;;;29.09;70.66;98695.19;5067223;28;20230;-73
2023/07/01 07:04:18;;;;;;;4.65;3.95;;;;;;;29.23;78.19;98694.81;5070921;28;20213;-75
2023/07/01 07:06:45;;;;;;;4.00;3.60;;;;;;;29.32;74.51;98693.38;5063787;28;20226;-75
2023/07/01 07:09:11;;;;;;;4.70;3.30;;;;;;;29.36;70.84;98683.19;5059018;28;20213;-75
2023/07/01 07:11:41;;;;;;;3.92;3.15;;;;;;;29.51;66.49;98693.91;5061826;28;20244;-76
2023/07/01 07:14:08;;;;;;;3.95;3.55;;;;;;;29.62;69.05;98692.22;5063419;28;20199;-75
2023/07/01 07:16:35;;;;;;;4.78;3.15;;;;;;;29.76;68.38;98689.00;5062921;28;20233;-73
2023/07/01 07:19:02;;;;;;;3.40;3.10;;;;;;;29.83;60.84;98691.44;5062629;28;20660;-73
2023/07/01 07:21:29;;;;;;;3.55;3.05;;;;;;;29.90;66.03;98689.38;5062531;28;20226;-75
2023/07/01 07:23:55;;;;;;;4.22;3.20;;;;;;;30.04;64.85;98689.00;5063190;28;20241;-73
2023/07/01 07:26:22;;;;;;;5.35;3.08;;;;;;;30.09;58.54;98681.97;5061459;28;20479;-74
2023/07/01 07:28:51;;;;;;;5.88;3.28;;;;;;;30.20;58.12;98678.38;5063218;28;20590;-74
2023/07/01 07:31:17;;;;;;;3.25;2.95;;;;;;;30.18;60.71;98687.59;5058537;28;20523;-75
2023/07/01 07:33:44;;;;;;;3.22;2.92;;;;;;;30.27;61.25;98687.97;5057499;28;20432;-74
2023/07/01 07:36:11;;;;;;;4.13;2.80;;;;;;;30.45;66.92;98685.75;5063884;28;20219;-74
2023/07/01 07:38:38;;;;;;;4.35;3.08;;;;;;;30.66;63.00;98680.66;5065136;28;20205;-74
2023/07/01 07:41:05;;;;;;;3.45;2.97;;;;;;;30.83;59.78;98681.34;5064659;28;20234;-71
2023/07/01 07:43:32;;;;;;;3.00;2.70;;;;;;;30.80;52.06;98678.41;5067812;28;20706;-72
2023/07/01 07:46:01;;;;;;;3.28;2.70;;;;;;;31.07;57.36;98679.16;5066386;28;20230;-72
2023/07/01 07:48:28;;;;;;;4.53;3.20;;;;;;;31.25;59.27;98677.94;5068939;28;20601;-71
2023/07/01 07:50:55;;;;;;;3.58;2.63;;;;;;;31.33;56.74;98688.03;5069552;28;20229;-72
2023/07/01 07:53:25;;;;;;;2.25;2.05;;;;;;;31.45;56.19;98676.47;5069047;28;20229;-72
2023/07/01 07:55:52;;;;;;;2.60;2.40;;;;;;;31.42;51.52;98682.28;5064356;28;20227;-72
2023/07/01 07:58:19;;;;;;;2.60;2.40;;;;;;;31.32;45.39;98683.75;5065371;28;20187;-73
2023/07/01 08:00:46;;;;;;;2.55;2.35;;;;;;;31.56;52.07;98675.44;5061334;28;20234;-73
2023/07/01 08:03:15;;;;;;;4.72;3.00;;;;;;;31.68;49.35;98670.75;5059855;28;20278;-73
2023/07/01 08:05:41;;;;;;;2.58;2.20;;;;;;;31.67;49.52;98671.00;5066715;28;20268;-72
2023/07/01 08:08:08;;;;;;;2.50;2.30;;;;;;;31.79;48.12;98675.03;5066275;28;20670;-74
2023/07/01 08:10:35;;;;;;;2.60;2.40;;;;;;;31.73;48.84;98678.69;5056270;28;20218;-73
2023/07/01 08:13:02;;;;;;;2.75;2.40;;;;;;;31.72;50.77;98677.09;5058094;28;20222;-74
2023/07/01 08:15:29;;;;;;;4.85;2.55;;;;;;;31.74;51.24;98669.72;5066094;28;20207;-75
2023/07/01 08:17:56;;;;;;;2.55;2.35;;;;;;;31.73;45.84;98667.31;5063269;28;20198;-75
2023/07/01 08:20:24;;;;;;;2.90;2.40;;;;;;;31.70;49.71;98667.84;5066034;28;20600;-73
2023/07/01 08:22:51;;;;;;;2.75;2.45;;;;;;;31.67;50.40;98671.00;5069303;28;20225;-75
2023/07/01 08:25:18;;;;;;;2.90;2.60;;;;;;;31.59;48.77;98677.56;5069370;28;20641;-75
2023/07/01 08:27:45;;;;;;;3.05;2.75;;;;;;;31.70;47.39;98663.34;5065859;28;20219;-72
2023/07/01 08:30:12;;;;;;;2.85;2.45;;;;;;;31.73;46.81;98668.13;5069370;28;20222;-75
2023/07/01 08:32:40;;;;;;;2.80;2.50;;;;;;;31.42;45.38;98655.88;5061076;28;20235;-76
2023/07/01 08:35:07;;;;;;;3.08;2.60;;;;;;;31.42;47.26;98666.44;5062422;28;20270;-73
2023/07/01 08:37:36;;;;;;;6.28;2.50;;;;;;;31.84;50.99;98652.31;5058041;28;20232;-73
2023/07/01 08:40:03;;;;;;;2.70;2.50;;;;;;;32.15;48.64;98653.97;5059510;28;20697;-73
2023/07/01 08:42:36;;;;;;;2.58;2.35;;;;;;;32.36;49.02;98648.72;5057956;28;20273;-73
2023/07/01 08:45:04;;;;;;;2.55;2.35;;;;;;;32.48;48.03;98646.63;5057143;28;20286;-75
2023/07/01 08:47:33;;;;;;;3.58;2.40;;;;;;;31.98;42.97;98650.78;5058317;28;20215;-73
2023/07/01 08:50:05;;;;;;;2.65;2.45;;;;;;;32.02;43.88;98654.47;5059542;28;20671;-74
2023/07/01 08:52:37;;;;;;;2.67;2.40;;;;;;;32.15;45.87;98643.41;5056659;28;20222;-74
2023/07/01 08:55:06;;;;;;;2.38;2.17;;;;;;;32.49;46.22;98640.25;5060320;28;20254;-72
2023/07/01 08:57:33;;;;;;;2.83;2.53;;;;;;;32.74;50.31;98639.47;5057275;28;20210;-73
2023/07/01 09:00:01;;;;;;;2.95;2.63;;;;;;;32.98;48.07;98639.69;5066013;28;20206;-76
2023/07/01 09:02:30;;;;;;;3.53;2.95;;;;;;;33.18;45.59;98638.06;5067576;28;20600;-73
2023/07/01 09:04:58;;;;;;;14.32;10.27;;;;;;;33.26;45.38;98640.19;5064622;28;20683;-74
2023/07/01 09:07:25;;;;;;;3.45;2.70;;;;;;;33.32;46.25;98633.78;5068643;28;20215;-76
2023/07/01 09:09:52;;;;;;;3.67;2.72;;;;;;;33.39;43.56;98633.50;5068938;28;20209;-74
2023/07/01 09:12:21;;;;;;;2.83;2.42;;;;;;;33.41;43.76;98631.38;5064904;28;20232;-72
2023/07/01 09:14:58;;;;;;;2.90;2.70;;;;;;;33.63;44.49;98629.19;5068778;28;20604;-71
2023/07/01 09:17:29;;;;;;;5.75;2.63;;;;;;;33.59;42.54;98628.13;5068424;28;20222;-73
2023/07/01 09:19:59;;;;;;;3.65;2.60;;;;;;;33.67;43.28;98632.06;5068704;28;20210;-74
2023/07/01 09:22:26;;;;;;;2.70;2.50;;;;;;;33.71;43.03;98627.81;5064861;28;20222;-75
2023/07/01 09:24:53;;;;;;;2.80;2.50;;;;;;;33.91;47.08;98635.63;5068808;28;20289;-74
2023/07/01 09:27:21;;;;;;;2.90;2.60;;;;;;;33.74;43.71;98627.25;5068051;28;20234;-77
2023/07/01 09:29:48;;;;;;;3.13;2.83;;;;;;;33.48;41.80;98643.28;5067236;28;20203;-73
2023/07/01 09:32:28;;;;;;;2.60;2.40;;;;;;;33.47;43.47;98625.78;5063001;28;20613;-72
2023/07/01 12:12:01;;;;;;;2.50;2.30;;;;;;;35.93;33.59;98495.88;5077312;27;20629;-72
2023/07/01 12:14:29;;;;;;;2.25;2.05;;;;;;;35.81;32.79;98497.13;5056763;28;20237;-73
2023/07/01 12:17:28;;;;;;;3.05;2.63;;;;;;;35.79;33.92;98495.81;5115640;27;20574;-72
2023/07/01 12:21:19;;;;;;;2.13;1.92;;;;;;;35.80;34.60;98490.19;5143244;27;20370;-72
2023/07/01 12:28:06;;;;;;;2.40;2.03;;;;;;;35.51;31.54;98489.56;5052732;27;20610;-72
2023/07/01 12:34:17;;;;;;;2.30;2.10;;;;;;;35.27;30.47;98490.44;5093162;27;20575;-72
2023/07/01 12:36:45;;;;;;;2.47;2.15;;;;;;;35.19;29.99;98493.75;5090236;28;20205;-72
2023/07/01 12:39:11;;;;;;;3.17;2.83;;;;;;;35.22;38.67;98487.06;5089619;28;20222;-72
2023/07/01 12:41:39;;;;;;;2.92;2.50;;;;;;;35.22;37.18;98482.53;5089950;28;20202;-74
2023/07/01 12:44:08;;;;;;;3.40;2.47;;;;;;;35.16;38.16;98483.69;5090787;28;20230;-75
2023/07/01 12:46:38;;;;;;;2.60;2.40;;;;;;;35.08;36.97;98490.47;5093257;28;20209;-77
2023/07/01 12:49:06;;;;;;;2.75;2.55;;;;;;;35.18;38.70;98486.88;5097418;28;20260;-77
2023/07/01 12:51:37;;;;;;;2.70;2.50;;;;;;;35.17;37.53;98485.28;5105374;28;20280;-77
2023/07/01 12:54:04;;;;;;;2.40;2.20;;;;;;;35.01;32.71;98487.31;5097500;28;20294;-76
2023/07/01 12:56:31;;;;;;;2.45;2.25;;;;;;;35.15;33.56;98484.78;5090261;28;20780;-76
2023/07/01 12:58:58;;;;;;;2.38;2.17;;;;;;;35.18;33.34;98486.88;5086737;28;20236;-76
